Time;durP1;ratioP1;P1;durP2;ratioP2;P2;SDS_P1;SDS_P2;PMS_P1;PMS_P2;Temp;Humidity;BMP_temperature;BMP_pressure;BME280_temperature;BME280_humidity;BME280_pressure;Samples;Min_cycle;Max_cycle;Signal;HPM_P1;HPM_P2
2022/04/20 00:01:42;;;;;;;12.20;9.27;;;;;;;13.17;60.43;100624.44;4913346;29;20521;-80
2022/04/20 00:04:11;;;;;;;11.02;8.82;;;;;;;12.68;60.30;100550.22;4930264;29;20048;-79
2022/04/20 00:06:38;;;;;;;12.38;8.25;;;;;;;13.01;60.76;100606.47;4913560;29;20058;-80
2022/04/20 00:09:05;;;;;;;16.88;9.13;;;;;;;13.12;60.23;100619.56;4913177;29;20044;-77
2022/04/20 00:11:32;;;;;;;12.63;8.48;;;;;;;13.05;60.81;100608.69;4930038;29;20052;-78
2022/04/20 00:13:59;;;;;;;13.57;9.32;;;;;;;13.37;61.72;100657.97;4913029;29;20063;-79
2022/04/20 00:16:26;;;;;;;14.05;7.93;;;;;;;13.39;61.48;100658.66;4913001;29;20051;-79
2022/04/20 00:18:52;;;;;;;13.77;7.30;;;;;;;13.36;61.98;100655.50;4913423;29;20063;-79
2022/04/20 00:21:25;;;;;;;9.60;7.68;;;;;;;13.40;61.37;100641.69;4930013;29;20150;-80
2022/04/20 00:23:54;;;;;;;17.05;8.35;;;;;;;13.51;62.60;100679.78;4913041;29;20626;-80
2022/04/20 00:26:21;;;;;;;10.43;8.35;;;;;;;13.29;63.13;100652.59;4913160;29;20052;-81
2022/04/20 00:28:47;;;;;;;8.25;7.40;;;;;;;13.39;62.42;100649.84;4913154;29;20458;-80
2022/04/20 00:31:14;;;;;;;12.18;7.25;;;;;;;13.40;62.81;100651.53;4913152;29;20394;-79
2022/04/20 00:33:41;;;;;;;13.45;8.82;;;;;;;12.71;62.82;100541.09;4912767;29;20409;-80
2022/04/20 00:36:09;;;;;;;14.48;9.25;;;;;;;13.59;62.15;100683.38;4913058;29;20414;-80
2022/04/20 00:38:36;;;;;;;9.23;7.95;;;;;;;13.61;62.30;100692.03;4913105;29;20091;-78
2022/04/20 00:41:02;;;;;;;11.55;8.13;;;;;;;13.29;62.33;100646.44;4912740;29;20099;-79
2022/04/20 00:43:29;;;;;;;10.68;9.18;;;;;;;13.18;62.61;100658.97;4913116;29;20047;-80
2022/04/20 00:45:59;;;;;;;9.50;8.60;;;;;;;13.29;62.66;100689.91;4913397;29;20070;-79
2022/04/20 00:48:27;;;;;;;11.68;8.68;;;;;;;13.27;63.92;100694.56;4912743;29;20074;-80
2022/04/20 00:50:54;;;;;;;12.20;8.57;;;;;;;12.95;63.56;100642.56;4912735;29;20265;-80
2022/04/20 00:53:20;;;;;;;14.30;8.23;;;;;;;13.24;63.64;100689.50;4912941;29;20067;-81
2022/04/20 00:55:47;;;;;;;8.75;7.85;;;;;;;13.39;64.34;100713.84;4913402;29;20060;-80
2022/04/20 00:58:14;;;;;;;10.20;7.30;;;;;;;12.64;64.71;100595.94;4914401;29;20062;-80
2022/04/20 01:00:41;;;;;;;7.78;7.03;;;;;;;13.45;64.29;100714.06;4917128;29;20454;-81
2022/04/20 01:03:08;;;;;;;9.48;7.90;;;;;;;12.83;64.19;100617.13;4902933;29;20063;-80
2022/04/20 01:05:35;;;;;;;12.80;7.28;;;;;;;13.48;64.43;100717.44;4932386;29;20055;-80
2022/04/20 01:08:02;;;;;;;13.13;7.10;;;;;;;13.32;65.29;100716.25;4912996;29;20074;-80
2022/04/20 01:10:29;;;;;;;13.02;7.53;;;;;;;13.16;65.43;100700.91;4912396;29;20052;-78
2022/04/20 01:12:56;;;;;;;9.13;7.72;;;;;;;13.04;65.74;100689.63;4913157;29;20052;-80
2022/04/20 01:15:24;;;;;;;13.70;8.23;;;;;;;12.96;65.71;100678.91;4913321;29;20056;-80
2022/04/20 01:17:50;;;;;;;10.68;7.63;;;;;;;13.00;65.57;100679.41;4917440;29;20058;-80
2022/04/20 01:20:18;;;;;;;7.68;6.97;;;;;;;13.27;64.83;100710.56;4932543;29;20063;-80
2022/04/20 01:22:44;;;;;;;13.25;7.25;;;;;;;13.40;65.38;100737.69;4913828;29;20079;-80
2022/04/20 01:25:13;;;;;;;8.88;7.72;;;;;;;13.18;66.02;100711.41;4912793;29;20288;-80
2022/04/20 01:27:41;;;;;;;10.52;7.70;;;;;;;13.37;64.83;100735.31;4912659;29;20114;-79
2022/04/20 01:30:08;;;;;;;8.90;7.72;;;;;;;13.28;64.92;100711.38;4912537;29;20506;-79
2022/04/20 01:32:35;;;;;;;8.52;7.35;;;;;;;13.32;64.67;100718.94;4911865;29;20542;-80
2022/04/20 01:35:02;;;;;;;13.85;7.47;;;;;;;13.29;65.73;100724.56;4929178;29;20590;-80
2022/04/20 01:37:30;;;;;;;13.35;7.15;;;;;;;13.42;65.00;100750.84;4912165;29;20047;-80
2022/04/20 01:39:56;;;;;;;8.27;6.72;;;;;;;13.39;65.49;100746.66;4912004;29;20063;-80
2022/04/20 01:42:23;;;;;;;14.65;6.90;;;;;;;13.17;65.47;100713.25;4912268;29;20059;-81
2022/04/20 01:44:50;;;;;;;11.63;6.40;;;;;;;13.04;65.83;100702.13;4911810;29;20048;-80
2022/04/20 01:47:16;;;;;;;12.10;7.07;;;;;;;13.12;65.87;100730.69;4912090;29;20258;-80
2022/04/20 01:49:43;;;;;;;11.20;6.70;;;;;;;13.26;65.87;100751.50;4912488;29;20273;-80
2022/04/20 01:52:10;;;;;;;10.70;7.35;;;;;;;13.14;66.48;100731.38;4912183;29;20071;-79
2022/04/20 01:54:55;;;;;;;18.05;7.35;;;;;;;13.30;67.02;100771.59;4911925;29;20359;-79
2022/04/20 01:57:22;;;;;;;8.35;6.90;;;;;;;13.18;66.44;100754.94;4911856;29;20658;-80
2022/04/20 01:59:48;;;;;;;9.43;6.50;;;;;;;13.27;66.92;100779.88;4911652;29;20056;-78
2022/04/20 02:05:03;;;;;;;12.10;6.93;;;;;;;13.34;66.48;100786.28;4909571;29;20064;-79
2022/04/20 02:07:30;;;;;;;10.13;6.95;;;;;;;13.30;66.66;100773.41;4907840;29;20056;-79
2022/04/20 02:09:58;;;;;;;12.98;6.85;;;;;;;13.14;66.86;100752.72;4908644;29;20060;-79
2022/04/20 02:12:25;;;;;;;8.73;7.15;;;;;;;13.04;66.53;100726.94;4908321;29;20052;-79
2022/04/20 02:14:52;;;;;;;14.15;8.02;;;;;;;13.33;66.05;100781.13;4908511;29;20264;-79
2022/04/20 02:17:18;;;;;;;13.55;7.68;;;;;;;13.11;66.50;100759.19;4908236;29;20320;-80
2022/04/20 02:19:45;;;;;;;13.23;7.30;;;;;;;13.29;66.26;100785.06;4909115;29;20064;-79
2022/04/20 02:22:12;;;;;;;12.32;7.25;;;;;;;13.30;66.54;100794.72;4911139;29;20410;-79
2022/04/20 02:24:39;;;;;;;13.07;8.55;;;;;;;12.63;66.71;100677.69;4912654;29;20413;-79
2022/04/20 02:27:08;;;;;;;13.05;8.77;;;;;;;13.35;66.23;100790.63;4913353;29;20562;-80
2022/04/20 02:29:36;;;;;;;10.75;7.32;;;;;;;13.38;66.11;100782.34;4911363;29;20056;-80
2022/04/20 02:32:02;;;;;;;10.85;7.80;;;;;;;13.30;66.15;100765.41;4911248;29;20063;-79
2022/04/20 02:34:29;;;;;;;10.57;7.72;;;;;;;13.28;66.74;100786.91;4910411;29;20048;-79
2022/04/20 02:36:58;;;;;;;12.13;6.55;;;;;;;13.24;66.73;100780.16;4910241;29;20170;-80
2022/04/20 02:39:25;;;;;;;15.00;7.85;;;;;;;13.45;66.47;100796.75;4911781;29;20098;-79
2022/04/20 02:41:52;;;;;;;8.07;7.18;;;;;;;13.43;66.36;100798.72;4911865;29;20065;-78
2022/04/20 02:44:19;;;;;;;12.82;7.25;;;;;;;12.85;66.52;100711.06;4911620;29;20074;-79
2022/04/20 02:46:45;;;;;;;12.40;8.10;;;;;;;13.33;67.12;100800.63;4911733;29;20392;-79
2022/04/20 02:49:13;;;;;;;10.43;7.60;;;;;;;13.07;67.02;100762.28;4911617;29;20069;-79
2022/04/20 02:51:39;;;;;;;12.40;7.45;;;;;;;13.27;67.18;100798.53;4910599;29;20530;-80
2022/04/20 02:54:06;;;;;;;8.70;7.88;;;;;;;13.30;66.94;100806.25;4911087;29;20052;-80
2022/04/20 02:56:33;;;;;;;13.38;8.23;;;;;;;12.43;67.12;100668.94;4909660;29;20056;-79
2022/04/20 02:59:00;;;;;;;12.93;7.22;;;;;;;13.18;66.71;100786.06;4909922;29;20052;-79
2022/04/20 03:01:28;;;;;;;12.80;7.88;;;;;;;13.07;67.42;100783.59;4912413;29;20056;-79
2022/04/20 03:03:54;;;;;;;12.52;8.40;;;;;;;13.09;67.19;100781.63;4931630;29;20360;-80
2022/04/20 03:06:21;;;;;;;10.88;7.65;;;;;;;13.27;67.02;100806.53;4911410;29;20040;-79
2022/04/20 03:08:48;;;;;;;10.07;7.68;;;;;;;13.23;67.53;100803.31;4912485;29;20677;-80
2022/04/20 03:11:15;;;;;;;17.25;8.25;;;;;;;13.04;67.16;100768.75;4896105;29;20052;-80
2022/04/20 03:13:43;;;;;;;11.98;8.13;;;;;;;13.32;66.83;100809.59;4929345;29;20059;-81
2022/04/20 03:16:12;;;;;;;14.60;7.57;;;;;;;13.34;67.45;100815.59;4941025;29;20079;-80
2022/04/20 03:18:39;;;;;;;8.88;7.55;;;;;;;12.73;66.72;100702.44;4929362;29;20055;-80
2022/04/20 03:21:06;;;;;;;12.82;8.85;;;;;;;13.39;66.67;100804.50;4927013;29;20092;-80
2022/04/20 03:23:33;;;;;;;9.40;7.97;;;;;;;13.38;66.88;100795.66;4940537;29;20044;-79
2022/04/20 03:26:00;;;;;;;11.73;7.95;;;;;;;13.40;66.31;100787.53;4915981;29;20063;-79
2022/04/20 03:28:27;;;;;;;11.70;7.97;;;;;;;13.16;66.27;100759.56;4914014;29;20048;-79
2022/04/20 03:30:54;;;;;;;17.73;8.38;;;;;;;13.30;66.27;100786.72;4914040;29;20060;-80
2022/04/20 03:33:21;;;;;;;9.35;7.95;;;;;;;13.40;66.52;100804.34;4914122;29;20047;-80
2022/04/20 03:35:48;;;;;;;15.88;9.13;;;;;;;13.33;66.84;100821.09;4930202;29;20058;-79
2022/04/20 03:38:15;;;;;;;13.57;8.98;;;;;;;13.28;67.00;100810.88;4915794;29;20055;-79
2022/04/20 03:40:42;;;;;;;11.77;8.63;;;;;;;13.20;67.35;100794.75;4914858;29;20059;-79
2022/04/20 03:43:08;;;;;;;12.45;10.05;;;;;;;13.34;66.88;100823.59;4913908;29;20048;-79
2022/04/20 03:45:35;;;;;;;12.73;8.85;;;;;;;13.33;67.12;100827.28;4913679;29;20063;-79
2022/04/20 03:48:02;;;;;;;16.02;9.35;;;;;;;13.23;67.01;100808.63;4912731;29;20067;-78
2022/04/20 03:50:29;;;;;;;12.57;9.13;;;;;;;12.45;67.21;100672.31;4930869;29;20056;-80
2022/04/20 03:52:56;;;;;;;11.38;9.93;;;;;;;13.33;67.25;100826.44;4913915;29;20055;-79
2022/04/20 03:55:23;;;;;;;12.20;9.07;;;;;;;13.12;68.09;100829.31;4930500;29;20059;-79
2022/04/20 03:57:49;;;;;;;12.52;9.23;;;;;;;13.05;68.54;100837.88;4913703;29;20525;-79
2022/04/20 04:00:16;;;;;;;13.93;9.27;;;;;;;13.10;68.47;100845.44;4913843;29;20052;-79
2022/04/20 04:02:43;;;;;;;15.40;9.57;;;;;;;13.20;68.07;100838.25;4930000;29;20063;-79
2022/04/20 04:05:09;;;;;;;12.07;8.98;;;;;;;12.96;67.65;100796.16;4913272;29;20054;-80
2022/04/20 04:07:37;;;;;;;12.30;9.13;;;;;;;13.20;68.01;100838.25;4910256;29;20521;-79
2022/04/20 04:10:06;;;;;;;11.20;8.63;;;;;;;13.18;67.44;100812.72;4925699;29;20052;-79
2022/04/20 04:12:33;;;;;;;14.27;9.93;;;;;;;13.19;67.03;100815.25;4910451;29;20052;-79
2022/04/20 04:15:00;;;;;;;12.32;9.10;;;;;;;12.84;67.66;100752.03;4925911;29;20067;-80
2022/04/20 04:17:26;;;;;;;12.18;9.55;;;;;;;13.12;67.67;100821.31;4893797;29;20564;-80
2022/04/20 04:19:53;;;;;;;9.57;8.60;;;;;;;13.22;67.73;100849.59;4926336;29;20480;-79
2022/04/20 04:22:21;;;;;;;9.68;8.68;;;;;;;13.24;67.45;100838.78;4903743;29;20355;-78
2022/04/20 04:24:48;;;;;;;13.15;8.95;;;;;;;13.27;68.00;100854.50;4920088;29;20139;-78
2022/04/20 04:27:16;;;;;;;9.68;8.10;;;;;;;13.33;67.74;100859.28;4922270;29;20198;-79
2022/04/20 04:29:42;;;;;;;13.52;9.10;;;;;;;13.25;68.10;100857.31;4919517;29;20063;-79
2022/04/20 04:32:09;;;;;;;13.90;9.27;;;;;;;13.45;67.31;100852.75;4918720;29;20079;-80
2022/04/20 04:34:36;;;;;;;14.88;9.35;;;;;;;13.42;67.58;100861.06;4917941;29;20040;-79
2022/04/20 04:37:04;;;;;;;13.45;9.25;;;;;;;13.35;67.78;100849.31;4914057;29;20102;-79
2022/04/20 04:39:30;;;;;;;10.63;8.77;;;;;;;13.16;67.92;100834.22;4913072;29;20063;-80
2022/04/20 04:41:57;;;;;;;7.97;6.63;;;;;;;13.46;67.20;100864.25;4912719;29;20330;-79
2022/04/20 04:44:23;;;;;;;13.10;9.15;;;;;;;13.06;67.42;100817.44;4929344;29;20047;-80
2022/04/20 04:49:36;;;;;;;13.30;9.85;;;;;;;13.23;68.66;100867.28;4929570;29;20048;-79
2022/04/20 04:52:04;;;;;;;11.68;9.20;;;;;;;13.00;68.45;100836.66;4912486;29;20082;-80
2022/04/20 04:54:32;;;;;;;10.65;9.07;;;;;;;13.32;68.41;100868.25;4912298;29;20114;-81
2022/04/20 04:56:58;;;;;;;12.18;7.72;;;;;;;13.42;68.07;100874.38;4912157;29;20345;-80
2022/04/20 04:59:25;;;;;;;11.48;6.85;;;;;;;13.44;67.48;100871.56;4912565;29;20047;-80
2022/04/20 05:01:52;;;;;;;14.32;6.78;;;;;;;13.50;66.59;100859.47;4910634;29;20258;-80
2022/04/20 05:04:19;;;;;;;11.90;6.60;;;;;;;13.77;66.30;100878.09;4929073;29;20102;-80
2022/04/20 05:06:47;;;;;;;17.13;6.65;;;;;;;13.80;65.64;100867.13;4935045;29;20457;-80
2022/04/20 05:09:14;;;;;;;13.30;6.10;;;;;;;13.61;65.07;100822.72;4911476;29;20059;-80
2022/04/20 05:11:40;;;;;;;13.82;5.63;;;;;;;14.15;64.83;100892.19;4911347;29;20083;-80
2022/04/20 05:14:07;;;;;;;9.52;5.05;;;;;;;14.36;63.05;100897.19;4911213;29;20044;-80
2022/04/20 05:16:34;;;;;;;11.02;4.20;;;;;;;14.41;61.06;100862.00;4928504;29;20073;-79
2022/04/20 05:19:01;;;;;;;6.30;3.80;;;;;;;14.17;61.55;100867.97;4911145;29;20047;-79
2022/04/20 05:21:27;;;;;;;10.15;4.30;;;;;;;14.35;61.38;100870.66;4927942;29;20067;-80
2022/04/20 05:23:54;;;;;;;6.32;3.70;;;;;;;14.62;60.18;100886.56;4911112;29;20493;-80
2022/04/20 05:26:21;;;;;;;6.90;3.05;;;;;;;14.29;60.04;100835.53;4909480;29;20059;-79
2022/04/20 05:28:49;;;;;;;10.50;3.85;;;;;;;14.71;59.93;100909.69;4910577;29;20082;-80
2022/04/20 05:31:16;;;;;;;12.27;3.63;;;;;;;14.13;59.08;100792.72;4913344;29;20052;-80
2022/04/20 05:33:43;;;;;;;7.90;3.25;;;;;;;14.88;58.44;100909.78;4916857;29;20078;-80
2022/04/20 05:36:10;;;;;;;8.32;3.67;;;;;;;14.98;58.52;100918.56;4914039;29;20437;-80
2022/04/20 05:41:41;;;;;;;7.40;3.13;;;;;;;14.48;58.93;100908.47;4946587;29;20095;-80
2022/04/20 05:44:10;;;;;;;11.30;3.53;;;;;;;14.74;59.00;100882.66;4929808;29;20126;-80
2022/04/20 05:46:38;;;;;;;7.07;3.03;;;;;;;14.71;58.50;100874.13;4929558;29;20057;-80
2022/04/20 05:49:05;;;;;;;5.63;2.90;;;;;;;14.95;58.43;100921.53;4930042;29;20421;-79
2022/04/20 05:51:32;;;;;;;6.68;2.88;;;;;;;14.83;57.96;100920.13;4929664;29;20051;-80
2022/04/20 05:53:59;;;;;;;3.60;2.53;;;;;;;14.52;58.17;100864.44;4929810;29;20051;-80
2022/04/20 05:56:26;;;;;;;9.43;3.47;;;;;;;14.58;58.19;100903.91;4930866;29;20508;-79
2022/04/20 05:58:53;;;;;;;6.32;2.90;;;;;;;14.61;58.98;100908.97;4951276;29;20449;-78
2022/04/20 06:01:22;;;;;;;12.77;3.22;;;;;;;14.78;58.27;100917.06;4934381;29;20452;-81
2022/04/20 06:03:50;;;;;;;6.25;3.00;;;;;;;15.02;58.02;100930.59;4943430;28;20040;-81
2022/04/20 06:06:18;;;;;;;6.53;2.90;;;;;;;14.54;57.88;100873.19;4911193;29;20572;-80
2022/04/20 06:08:45;;;;;;;5.60;2.67;;;;;;;14.74;58.23;100936.09;4926447;29;20150;-80
2022/04/20 06:11:11;;;;;;;5.90;2.90;;;;;;;14.72;58.75;100937.25;4912720;29;20048;-80
2022/04/20 06:13:38;;;;;;;6.63;2.90;;;;;;;14.65;58.77;100946.88;4927321;29;20052;-81
2022/04/20 06:16:06;;;;;;;5.78;2.90;;;;;;;14.64;58.73;100929.19;4896158;29;20288;-79
2022/04/20 06:18:34;;;;;;;9.80;3.55;;;;;;;14.55;59.06;100949.63;4926626;29;20061;-80
2022/04/20 06:21:01;;;;;;;12.88;3.85;;;;;;;14.61;59.00;100950.84;4926633;29;20055;-80
2022/04/20 06:23:28;;;;;;;5.47;2.83;;;;;;;14.36;59.13;100947.09;4901649;29;20058;-80
2022/04/20 06:25:55;;;;;;;11.35;3.00;;;;;;;14.46;59.24;100948.69;4914171;29;20083;-80
2022/04/20 06:28:24;;;;;;;7.60;3.35;;;;;;;14.57;59.09;100953.00;4914190;29;20055;-80
2022/04/20 06:30:52;;;;;;;7.25;2.80;;;;;;;14.74;59.31;100946.78;4915279;29;20138;-80
2022/04/20 06:33:21;;;;;;;12.52;3.38;;;;;;;14.80;58.72;100949.84;4914949;29;20659;-80
2022/04/20 06:35:48;;;;;;;5.22;2.25;;;;;;;14.67;58.41;100918.19;4915029;29;20070;-79
2022/04/20 06:38:16;;;;;;;7.70;2.80;;;;;;;14.93;58.53;100955.63;4914585;29;20059;-80
2022/04/20 06:40:43;;;;;;;7.88;2.50;;;;;;;15.05;57.75;100932.97;4914952;29;20055;-80
2022/04/20 06:43:10;;;;;;;8.07;2.85;;;;;;;14.72;57.78;100881.13;4931991;29;20056;-80
2022/04/20 06:45:37;;;;;;;6.50;2.33;;;;;;;15.06;57.87;100933.81;4914773;29;20056;-79
2022/04/20 06:48:04;;;;;;;6.07;2.50;;;;;;;14.78;57.58;100887.69;4914582;29;20051;-78
2022/04/20 06:50:31;;;;;;;7.53;3.53;;;;;;;15.16;58.16;100963.97;4927392;29;20039;-78
2022/04/20 06:58:39;;;;;;;8.45;2.58;;;;;;;15.47;57.70;100964.31;4950460;29;20437;-79
2022/04/20 07:01:07;;;;;;;11.20;3.45;;;;;;;15.49;57.04;100962.31;4933326;29;20051;-80
2022/04/20 07:03:36;;;;;;;3.83;2.60;;;;;;;15.49;56.96;100956.97;4932708;29;20082;-80
2022/04/20 07:06:04;;;;;;;6.10;3.00;;;;;;;15.45;57.23;100949.41;4942368;29;20073;-80
2022/04/20 07:08:32;;;;;;;10.40;2.88;;;;;;;15.34;57.69;100958.53;4929848;29;20584;-79
2022/04/20 07:10:59;;;;;;;7.15;3.42;;;;;;;15.13;58.34;100942.88;4926676;29;20056;-79
2022/04/20 07:13:27;;;;;;;4.63;2.70;;;;;;;15.22;57.75;100925.03;4895634;29;20048;-80
2022/04/20 07:15:54;;;;;;;10.45;3.15;;;;;;;15.51;57.16;100949.63;4926727;29;20059;-80
2022/04/20 07:18:21;;;;;;;7.75;3.00;;;;;;;15.91;56.19;100956.16;4895654;29;20063;-79
2022/04/20 07:20:48;;;;;;;7.00;3.40;;;;;;;15.66;56.77;100946.34;4895164;29;20048;-79
2022/04/20 07:23:16;;;;;;;5.30;2.33;;;;;;;15.65;57.12;100948.16;4931215;29;20417;-79
2022/04/20 07:25:43;;;;;;;6.38;3.47;;;;;;;15.65;57.13;100944.66;4915174;29;20059;-79
2022/04/20 07:28:16;;;;;;;6.38;2.65;;;;;;;16.00;55.80;100936.44;4933389;29;20050;-80
2022/04/20 07:30:43;;;;;;;5.10;2.72;;;;;;;15.96;55.34;100916.34;4932210;29;20043;-79
2022/04/20 07:33:09;;;;;;;4.97;3.10;;;;;;;16.02;55.86;100941.63;4931244;29;20058;-80
2022/04/20 07:35:36;;;;;;;9.88;3.30;;;;;;;14.16;55.94;100656.22;4947472;29;20062;-79
2022/04/20 07:38:03;;;;;;;7.45;3.00;;;;;;;16.12;55.38;100941.50;4931417;29;20596;-79
2022/04/20 07:40:31;;;;;;;7.05;3.05;;;;;;;15.96;55.80;100924.38;4932047;29;20055;-80
2022/04/20 07:42:58;;;;;;;5.15;2.80;;;;;;;16.17;55.05;100940.00;4931673;29;20070;-80
2022/04/20 07:45:27;;;;;;;5.85;2.75;;;;;;;16.02;55.06;100904.97;4932039;29;20051;-79
2022/04/20 07:47:57;;;;;;;6.88;2.85;;;;;;;15.95;55.52;100920.03;4931729;29;20079;-79
2022/04/20 07:50:24;;;;;;;5.72;3.22;;;;;;;15.94;56.52;100946.94;4950643;29;20138;-79
2022/04/20 07:52:59;;;;;;;11.38;3.00;;;;;;;15.94;56.52;100941.59;4932579;29;20416;-80
2022/04/20 07:55:27;;;;;;;6.35;2.92;;;;;;;15.75;56.77;100950.72;4931314;29;20445;-80
2022/04/20 07:57:56;;;;;;;6.13;3.05;;;;;;;15.64;56.81;100921.56;4946764;29;20047;-80
2022/04/20 08:00:24;;;;;;;9.05;4.03;;;;;;;15.67;57.62;100951.50;4930847;29;20058;-80
2022/04/20 08:03:10;;;;;;;8.52;3.42;;;;;;;15.62;57.18;100939.63;4947628;29;20538;-80
2022/04/20 08:05:38;;;;;;;6.50;3.80;;;;;;;15.47;58.41;100937.56;4929031;29;20517;-80
2022/04/20 08:08:06;;;;;;;5.57;3.45;;;;;;;15.48;58.65;100954.44;4912921;29;20054;-79
2022/04/20 08:10:33;;;;;;;8.45;3.65;;;;;;;14.95;57.39;100815.47;4914983;29;20437;-79
2022/04/20 08:13:00;;;;;;;6.90;4.00;;;;;;;15.90;57.09;100959.84;4915900;29;20506;-79
2022/04/20 08:15:26;;;;;;;9.65;4.55;;;;;;;15.88;56.78;100956.47;4918909;29;20048;-80
2022/04/20 08:17:53;;;;;;;8.10;4.85;;;;;;;16.03;56.42;100954.00;4964219;28;20043;-80
2022/04/20 08:20:20;;;;;;;10.80;5.82;;;;;;;15.10;58.03;100850.47;4947869;29;20063;-80
2022/04/20 08:22:47;;;;;;;7.25;4.90;;;;;;;15.55;57.65;100924.19;4945726;29;20500;-77
2022/04/20 08:25:13;;;;;;;8.48;4.05;;;;;;;15.93;56.94;100958.69;4918153;29;20059;-80
2022/04/20 08:27:40;;;;;;;9.57;4.60;;;;;;;15.88;56.81;100948.44;4913262;29;20051;-80
2022/04/20 08:30:08;;;;;;;7.45;4.53;;;;;;;15.75;57.26;100948.91;4913261;29;20320;-79
2022/04/20 08:32:35;;;;;;;8.93;4.13;;;;;;;15.77;57.72;100960.28;4915496;29;20048;-80
2022/04/20 08:35:03;;;;;;;8.07;4.47;;;;;;;15.13;57.72;100850.13;4915484;29;20052;-79
2022/04/20 08:37:30;;;;;;;9.43;4.55;;;;;;;15.87;57.65;100960.13;4913349;29;20078;-80
2022/04/20 08:39:56;;;;;;;8.00;3.97;;;;;;;15.99;56.89;100958.00;4930053;29;20075;-79
2022/04/20 08:42:25;;;;;;;11.13;4.82;;;;;;;15.92;57.51;100960.53;4929441;29;20043;-79
2022/04/20 08:44:56;;;;;;;7.90;4.00;;;;;;;15.93;56.77;100932.72;4912231;29;20478;-79
2022/04/20 08:47:23;;;;;;;8.23;4.68;;;;;;;16.19;57.04;100963.91;4912587;29;20054;-79
2022/04/20 08:49:51;;;;;;;10.50;5.15;;;;;;;15.94;57.34;100947.78;4912481;29;20059;-79
2022/04/20 08:52:37;;;;;;;8.48;4.03;;;;;;;16.00;56.97;100949.81;4912444;29;20082;-79
2022/04/20 08:55:07;;;;;;;6.20;3.67;;;;;;;16.01;55.96;100919.34;4913996;29;20497;-79
2022/04/20 08:57:36;;;;;;;5.75;3.70;;;;;;;16.38;55.57;100958.28;4913115;29;20070;-78
2022/04/20 09:00:20;;;;;;;8.68;4.18;;;;;;;16.39;56.51;100962.63;4929831;29;20399;-80
2022/04/20 09:02:52;;;;;;;10.30;5.55;;;;;;;16.16;56.89;100974.97;4929203;29;20370;-77
2022/04/20 09:05:20;;;;;;;8.45;4.70;;;;;;;16.06;57.84;100966.25;4912616;29;20086;-79
2022/04/20 09:07:47;;;;;;;13.50;5.03;;;;;;;15.56;57.29;100875.06;4912170;29;20065;-79
2022/04/20 09:10:16;;;;;;;5.80;4.95;;;;;;;16.05;57.63;100951.19;4943949;28;20394;-79
2022/04/20 09:12:45;;;;;;;6.05;3.90;;;;;;;15.95;56.83;100917.34;4912424;29;20051;-79
2022/04/20 09:15:27;;;;;;;5.57;4.60;;;;;;;15.91;56.87;100905.28;4912483;29;20143;-79
2022/04/20 09:17:56;;;;;;;11.48;5.22;;;;;;;16.08;57.70;100950.84;4960225;28;20055;-79
2022/04/20 09:20:23;;;;;;;5.68;3.88;;;;;;;16.14;57.65;100967.09;4931727;29;20058;-79
2022/04/20 09:23:08;;;;;;;5.45;3.88;;;;;;;16.33;56.58;100960.59;4929081;29;20051;-79
2022/04/20 09:25:48;;;;;;;5.97;3.97;;;;;;;16.16;56.58;100932.09;4943408;29;20159;-79
2022/04/20 09:28:15;;;;;;;;;;;;;;;16.30;57.29;100976.16;4931151;29;20413;-80
2022/04/20 09:30:42;;;;;;;6.60;3.67;;;;;;;16.79;55.16;100968.19;4931994;29;20274;-80
2022/04/20 09:33:10;;;;;;;5.10;4.07;;;;;;;16.72;55.16;100967.16;4950047;28;20062;-80
2022/04/20 09:35:52;;;;;;;8.63;4.35;;;;;;;16.22;55.68;100936.81;4934477;29;20530;-80
2022/04/20 09:38:21;;;;;;;12.38;4.38;;;;;;;16.18;55.55;100914.88;4934818;29;20066;-81
2022/04/20 09:40:49;;;;;;;6.15;4.05;;;;;;;16.37;56.24;100969.16;4949609;28;20507;-80
2022/04/20 09:43:19;;;;;;;10.05;4.60;;;;;;;16.26;56.80;100974.81;4935089;29;20052;-80
2022/04/20 09:46:01;;;;;;;10.63;4.63;;;;;;;16.35;56.16;100971.97;4934400;29;20062;-80
2022/04/20 09:51:20;;;;;;;6.22;3.78;;;;;;;16.18;55.03;100909.50;4951936;29;20497;-79
2022/04/20 09:53:49;;;;;;;6.10;3.97;;;;;;;16.78;54.40;100962.00;4934286;29;20055;-80
2022/04/20 09:56:19;;;;;;;10.07;3.45;;;;;;;16.11;54.99;100871.00;4935125;29;20047;-80
2022/04/20 09:58:46;;;;;;;7.10;3.75;;;;;;;16.67;54.94;100959.59;4950800;29;20047;-80
2022/04/20 10:01:30;;;;;;;8.88;3.75;;;;;;;16.82;54.27;100944.59;4951038;29;20433;-80
2022/04/20 10:04:00;;;;;;;7.80;3.85;;;;;;;16.70;53.92;100902.16;4948348;29;20061;-79
2022/04/20 10:06:27;;;;;;;7.30;3.30;;;;;;;17.17;52.98;100953.22;4950416;29;20044;-80
2022/04/20 10:08:54;;;;;;;12.75;5.10;;;;;;;16.55;53.61;100888.59;4938898;29;20058;-79
2022/04/20 10:11:22;;;;;;;9.32;4.15;;;;;;;17.17;52.93;100950.56;4955328;29;20401;-79
2022/04/20 10:16:50;;;;;;;5.55;3.15;;;;;;;16.72;53.58;100884.06;4952327;29;20106;-79
2022/04/20 10:19:28;;;;;;;7.93;4.32;;;;;;;17.20;53.60;100944.84;4952813;29;20121;-79
2022/04/20 10:21:56;;;;;;;10.63;4.88;;;;;;;16.96;53.93;100926.13;4939020;29;20047;-80
2022/04/20 10:24:33;;;;;;;10.38;3.88;;;;;;;16.04;53.66;100773.59;4930477;29;20051;-79
2022/04/20 10:27:08;;;;;;;8.32;4.40;;;;;;;17.02;52.34;100895.94;4927956;29;20112;-80
2022/04/20 10:29:55;;;;;;;10.48;4.50;;;;;;;17.09;53.64;100937.16;4946999;29;20063;-79
2022/04/20 10:32:24;;;;;;;7.40;5.30;;;;;;;16.99;54.67;100944.53;4951518;29;20051;-79
2022/04/20 10:34:52;;;;;;;7.68;4.30;;;;;;;17.01;54.86;100945.22;4966741;29;20065;-81
2022/04/20 10:37:25;;;;;;;9.77;4.75;;;;;;;17.29;53.68;100935.75;4941950;29;20059;-80
2022/04/20 10:39:55;;;;;;;5.90;4.10;;;;;;;16.96;52.33;100843.81;4953589;29;20142;-79
2022/04/20 10:42:23;;;;;;;5.07;3.65;;;;;;;16.82;52.37;100831.97;4948531;28;20509;-80
2022/04/20 10:44:55;;;;;;;9.05;4.00;;;;;;;17.60;52.17;100921.56;4948397;29;20055;-80
2022/04/20 10:47:36;;;;;;;6.72;4.03;;;;;;;17.35;52.39;100896.66;4950303;29;20066;-80
2022/04/20 10:50:09;;;;;;;6.43;3.78;;;;;;;17.27;52.92;100935.09;4951155;29;20051;-81
2022/04/20 10:52:37;;;;;;;6.32;3.40;;;;;;;17.23;52.65;100915.00;4948519;29;20040;-79
2022/04/20 10:55:11;;;;;;;4.97;3.50;;;;;;;16.55;52.67;100797.47;4916641;29;20445;-80
2022/04/20 10:57:40;;;;;;;6.30;3.75;;;;;;;17.12;51.66;100893.06;4913326;29;20062;-79
2022/04/20 11:00:16;;;;;;;10.07;3.78;;;;;;;17.45;51.30;100934.03;4930311;29;20493;-80
2022/04/20 11:03:00;;;;;;;6.60;3.03;;;;;;;17.02;51.60;100831.56;4948249;29;20066;-79
2022/04/20 11:05:27;;;;;;;5.50;3.45;;;;;;;17.48;51.21;100882.69;4947289;29;20520;-80
2022/04/20 11:08:01;;;;;;;5.50;3.15;;;;;;;17.11;51.43;100867.22;4931704;29;20048;-80
2022/04/20 11:10:28;;;;;;;4.88;3.22;;;;;;;16.53;51.54;100751.25;4916118;29;20412;-79
2022/04/20 11:19:06;;;;;;;4.95;3.15;;;;;;;17.72;50.84;100930.06;4951772;29;20374;-79
2022/04/20 11:21:33;;;;;;;6.57;3.42;;;;;;;17.40;50.66;100893.44;4950507;29;20080;-79
2022/04/20 11:24:07;;;;;;;5.13;3.10;;;;;;;17.37;51.21;100926.84;4922415;29;20047;-79
2022/04/20 11:26:35;;;;;;;8.07;2.95;;;;;;;17.66;50.38;100926.22;4915851;29;20051;-79
2022/04/20 11:29:15;;;;;;;3.83;3.08;;;;;;;17.04;51.10;100867.09;4916558;29;20126;-80
2022/04/20 11:31:48;;;;;;;3.80;2.50;;;;;;;16.10;51.18;100679.19;4915632;29;20130;-78
2022/04/20 11:34:18;;;;;;;3.78;2.85;;;;;;;17.17;50.52;100910.31;4916737;29;20103;-79
2022/04/20 11:36:47;;;;;;;3.67;3.15;;;;;;;17.14;50.58;100875.78;4932659;29;20273;-78
2022/04/20 11:39:16;;;;;;;8.55;2.92;;;;;;;17.45;50.78;100905.38;4915104;29;20051;-79
2022/04/20 11:41:44;;;;;;;6.13;3.13;;;;;;;17.47;50.20;100894.44;4913910;29;20055;-79
2022/04/20 11:44:25;;;;;;;6.60;2.83;;;;;;;17.60;50.48;100924.25;4914002;29;20047;-79
2022/04/20 11:47:01;;;;;;;3.80;2.65;;;;;;;17.33;49.63;100868.31;4913879;29;20060;-79
2022/04/20 11:49:35;;;;;;;4.35;2.60;;;;;;;17.51;50.61;100922.59;4914297;29;20056;-80
2022/04/20 11:52:06;;;;;;;5.45;2.80;;;;;;;17.08;49.78;100863.06;4914487;29;20122;-80
2022/04/20 11:54:34;;;;;;;4.70;2.90;;;;;;;17.35;50.38;100891.28;4929568;29;20059;-79